createdAt,value
2019-04-06T00:01:14.232Z,31.70
2019-04-06T00:04:16.230Z,41.07
2019-04-06T00:07:18.207Z,45.03
2019-04-06T00:10:20.154Z,35.23
2019-04-06T00:13:22.149Z,33.33
2019-04-06T00:16:24.075Z,35.23
2019-04-06T00:19:25.991Z,32.73
2019-04-06T00:22:27.890Z,36.50
2019-04-06T00:25:29.878Z,36.30
2019-04-06T00:28:31.796Z,48.50
2019-04-06T00:31:41.549Z,42.50
2019-04-06T00:34:43.479Z,33.87
2019-04-06T00:37:45.488Z,35.63
2019-04-06T00:40:47.439Z,31.63
2019-04-06T00:43:49.371Z,36.77
2019-04-06T00:46:51.327Z,36.53
2019-04-06T00:49:53.222Z,39.10
2019-04-06T00:52:55.232Z,32.67
2019-04-06T00:55:59.006Z,40.00
2019-04-06T00:59:01.119Z,41.93
2019-04-06T01:02:03.946Z,38.83
2019-04-06T01:05:06.958Z,37.77
2019-04-06T01:08:08.908Z,35.87
2019-04-06T01:11:10.829Z,32.70
2019-04-06T01:14:12.823Z,39.40
2019-04-06T01:17:14.841Z,36.07
2019-04-06T01:20:16.854Z,32.47
2019-04-06T01:23:18.873Z,36.20
2019-04-06T01:26:20.867Z,33.33
2019-04-06T01:29:22.976Z,42.33
2019-04-06T01:32:24.902Z,35.90
2019-04-06T01:35:26.913Z,37.90
2019-04-06T01:38:28.822Z,39.93
2019-04-06T01:41:30.802Z,41.97
2019-04-06T01:44:32.759Z,40.83
2019-04-06T01:47:34.800Z,38.57
2019-04-06T01:50:36.827Z,39.43
2019-04-06T01:53:38.761Z,36.30
2019-04-06T01:56:41.122Z,40.87
2019-04-06T01:59:43.170Z,36.20
2019-04-06T02:02:46.908Z,38.30
2019-04-06T02:05:48.908Z,42.93
2019-04-06T02:08:50.830Z,44.17
2019-04-06T02:11:52.864Z,47.87
2019-04-06T02:14:54.921Z,40.03
2019-04-06T02:17:56.881Z,43.40
2019-04-06T02:20:58.818Z,39.23
2019-04-06T02:24:00.782Z,45.67
2019-04-06T02:27:02.700Z,47.47
2019-04-06T02:30:19.076Z,44.07
2019-04-06T02:33:25.885Z,43.60
2019-04-06T02:36:32.446Z,42.17
2019-04-06T02:39:45.231Z,44.03
2019-04-06T02:42:52.004Z,60.43
2019-04-06T02:45:53.960Z,46.03
2019-04-06T02:48:55.926Z,45.10
2019-04-06T02:51:57.891Z,46.63
2019-04-06T02:55:01.035Z,39.37
2019-04-06T02:58:03.917Z,47.53
2019-04-06T03:01:06.803Z,47.93
2019-04-06T03:04:09.006Z,45.97
2019-04-06T03:07:11.023Z,45.97
2019-04-06T03:10:13.154Z,43.23
2019-04-06T03:13:15.325Z,51.37
2019-04-06T03:16:17.231Z,52.27
2019-04-06T03:19:19.197Z,46.90
2019-04-06T03:22:21.162Z,68.10
2019-04-06T03:25:23.110Z,53.50
2019-04-06T03:28:25.003Z,46.67
2019-04-06T03:31:27.988Z,57.90
2019-04-06T03:34:30.243Z,47.90
2019-04-06T03:37:32.170Z,47.90
2019-04-06T03:40:34.122Z,50.17
2019-04-06T03:43:36.177Z,49.17
2019-04-06T03:46:38.145Z,51.07
2019-04-06T03:49:40.071Z,45.17
2019-04-06T03:52:42.072Z,46.53
2019-04-06T03:55:44.033Z,48.63
2019-04-06T03:58:46.819Z,49.07
2019-04-06T04:01:48.905Z,50.20
2019-04-06T04:04:50.908Z,54.53
2019-04-06T04:07:53.684Z,46.33
2019-04-06T04:10:56.665Z,57.97
2019-04-06T04:13:58.797Z,49.67
2019-04-06T04:17:00.802Z,53.47
2019-04-06T04:20:05.190Z,50.07
2019-04-06T04:23:07.168Z,48.50
2019-04-06T04:26:09.102Z,46.10
2019-04-06T04:29:11.238Z,52.80
2019-04-06T04:32:13.480Z,44.67
2019-04-06T04:35:18.315Z,46.70
2019-04-06T04:38:19.274Z,52.43
2019-04-06T04:41:21.196Z,54.30
2019-04-06T04:44:23.174Z,56.63
2019-04-06T04:47:25.092Z,59.07
2019-04-06T04:50:27.065Z,56.10
2019-04-06T04:53:28.987Z,59.30
2019-04-06T04:56:30.995Z,55.40
2019-04-06T04:59:33.552Z,49.27
2019-04-06T05:02:35.840Z,57.77
2019-04-06T05:05:37.841Z,41.87
2019-04-06T05:08:39.814Z,49.63
2019-04-06T05:11:41.717Z,52.87
2019-04-06T05:14:57.305Z,68.77
2019-04-06T05:17:59.268Z,45.40
2019-04-06T05:21:01.371Z,40.63
2019-04-06T05:24:03.346Z,37.27
2019-04-06T05:27:05.320Z,38.90
2019-04-06T05:30:08.074Z,40.30
2019-04-06T05:33:10.316Z,40.83
2019-04-06T05:36:13.674Z,43.97
2019-04-06T05:39:15.669Z,42.37
2019-04-06T05:42:17.663Z,48.37
2019-04-06T05:45:19.652Z,41.67
2019-04-06T05:48:21.730Z,53.33
2019-04-06T05:51:23.714Z,46.53
2019-04-06T05:54:25.707Z,47.07
2019-04-06T05:57:31.608Z,53.07
2019-04-06T06:00:32.026Z,45.53
2019-04-06T06:03:34.145Z,38.43
2019-04-06T06:06:36.424Z,40.33
2019-04-06T06:09:38.930Z,38.20
2019-04-06T06:12:40.946Z,38.47
2019-04-06T06:15:42.860Z,41.33
2019-04-06T06:18:44.999Z,39.73
2019-04-06T06:21:46.921Z,34.20
2019-04-06T06:24:49.068Z,32.97
2019-04-06T06:27:50.999Z,36.30
2019-04-06T06:30:53.161Z,34.17
2019-04-06T06:33:55.365Z,35.30
2019-04-06T06:36:57.376Z,36.70
2019-04-06T06:39:59.318Z,36.67
2019-04-06T06:43:01.318Z,35.27
2019-04-06T06:46:03.778Z,38.63
2019-04-06T06:49:05.809Z,37.00
2019-04-06T06:52:07.809Z,36.60
2019-04-06T06:55:09.748Z,38.57
2019-04-06T06:58:11.749Z,38.83
2019-04-06T07:01:13.843Z,38.87
2019-04-06T07:04:16.183Z,35.77
2019-04-06T07:07:18.143Z,32.53
2019-04-06T07:10:20.097Z,39.50
2019-04-06T07:13:22.121Z,36.03
2019-04-06T07:16:24.581Z,37.83
2019-04-06T07:19:26.605Z,39.07
2019-04-06T07:22:28.558Z,31.50
2019-04-06T07:25:30.534Z,34.00
2019-04-06T07:28:38.399Z,38.53
2019-04-06T07:31:36.349Z,37.63
2019-04-06T07:34:38.436Z,36.13
2019-04-06T07:37:40.390Z,41.57
2019-04-06T07:40:42.385Z,33.33
2019-04-06T07:43:44.393Z,36.00
2019-04-06T07:46:46.394Z,41.80
2019-04-06T07:49:48.322Z,34.83
2019-04-06T07:52:50.284Z,38.97
2019-04-06T07:55:52.319Z,38.07
2019-04-06T07:58:54.272Z,33.33
2019-04-06T08:01:56.489Z,34.47
2019-04-06T08:04:58.719Z,38.47
2019-04-06T08:08:00.850Z,42.13
2019-04-06T08:11:02.838Z,37.67
2019-04-06T08:14:04.993Z,41.27
2019-04-06T08:17:06.950Z,36.10
2019-04-06T08:20:09.065Z,34.77
2019-04-06T08:23:12.158Z,37.57
2019-04-06T08:26:14.117Z,35.33
2019-04-06T08:29:16.082Z,42.43
2019-04-06T08:32:18.163Z,47.23
2019-04-06T08:35:25.744Z,43.97
2019-04-06T08:38:24.515Z,49.67
2019-04-06T08:41:26.559Z,46.47
2019-04-06T08:44:28.509Z,38.37
2019-04-06T08:47:30.515Z,43.10
2019-04-06T08:50:32.475Z,42.70
2019-04-06T08:53:34.429Z,44.93
2019-04-06T08:56:36.403Z,51.93
2019-04-06T08:59:38.434Z,45.90
2019-04-06T09:02:40.400Z,42.80
2019-04-06T09:05:42.562Z,43.17
2019-04-06T09:08:44.530Z,43.50
2019-04-06T09:11:46.647Z,44.33
2019-04-06T09:14:48.655Z,43.83
2019-04-06T09:17:50.776Z,42.23
2019-04-06T09:20:52.709Z,43.23
2019-04-06T09:23:58.200Z,40.93
2019-04-06T09:26:59.732Z,48.50
2019-04-06T09:30:05.196Z,40.33
2019-04-06T09:33:07.253Z,43.07
2019-04-06T09:36:09.454Z,45.47
2019-04-06T09:39:11.654Z,48.70
2019-04-06T09:42:13.759Z,47.80
2019-04-06T09:45:23.684Z,42.03
2019-04-06T09:48:27.552Z,39.40
2019-04-06T09:51:31.504Z,44.93
2019-04-06T09:54:35.620Z,38.10
2019-04-06T09:57:56.112Z,38.93
2019-04-06T10:01:06.549Z,39.50
2019-04-06T10:04:27.548Z,44.07
2019-04-06T10:07:43.692Z,41.90
2019-04-06T10:10:59.595Z,41.50
2019-04-06T10:14:10.528Z,41.83
2019-04-06T10:17:14.337Z,38.23
2019-04-06T10:20:33.169Z,37.10
2019-04-06T10:23:36.995Z,35.50
2019-04-06T10:26:40.803Z,39.57
2019-04-06T10:29:53.956Z,37.53
2019-04-06T10:33:07.000Z,39.83
2019-04-06T10:36:20.205Z,34.30
2019-04-06T10:39:27.340Z,32.97
2019-04-06T10:42:47.656Z,36.83
2019-04-06T10:45:54.443Z,36.53
2019-04-06T10:48:58.190Z,35.63
2019-04-06T10:52:18.635Z,37.10
2019-04-06T10:55:39.367Z,32.80
2019-04-06T10:58:43.241Z,41.33
2019-04-06T11:01:56.361Z,32.13
2019-04-06T11:05:00.186Z,36.43
2019-04-06T11:08:13.988Z,38.63
2019-04-06T11:11:34.309Z,36.90
2019-04-06T11:14:41.157Z,52.10
2019-04-06T11:17:44.879Z,35.17
2019-04-06T11:20:57.759Z,30.43
2019-04-06T11:24:18.234Z,38.27
2019-04-06T11:27:21.959Z,34.47
2019-04-06T11:30:31.593Z,38.83
2019-04-06T11:33:38.165Z,38.53
2019-04-06T11:36:51.229Z,32.80
2019-04-06T11:40:10.159Z,34.00
2019-04-06T11:43:26.076Z,37.17
2019-04-06T11:46:39.160Z,32.57
2019-04-06T11:49:45.602Z,30.67
2019-04-06T11:53:01.277Z,37.30
2019-04-06T11:56:08.659Z,35.60
2019-04-06T11:59:27.546Z,35.13
2019-04-06T12:02:41.361Z,40.80
2019-04-06T12:05:47.802Z,50.37
2019-04-06T12:08:57.714Z,47.47
2019-04-06T12:12:13.921Z,48.83
2019-04-06T12:15:27.361Z,45.17
2019-04-06T12:18:31.177Z,49.50
2019-04-06T12:21:41.051Z,49.03
2019-04-06T12:24:44.889Z,45.20
2019-04-06T12:27:52.205Z,48.10
2019-04-06T12:30:56.046Z,46.37
2019-04-06T12:34:11.457Z,44.23
2019-04-06T12:37:15.596Z,58.73
2019-04-06T12:40:22.534Z,46.60
2019-04-06T12:43:43.214Z,48.07
2019-04-06T12:46:59.490Z,47.63
2019-04-06T12:50:18.576Z,41.10
2019-04-06T12:53:37.411Z,44.77
2019-04-06T12:56:50.812Z,46.50
2019-04-06T13:00:06.778Z,40.40
2019-04-06T13:03:13.975Z,51.23
2019-04-06T13:06:24.195Z,42.07
2019-04-06T13:09:44.644Z,38.23
2019-04-06T13:12:57.960Z,41.53
2019-04-06T13:16:01.864Z,35.30
2019-04-06T13:19:24.132Z,37.30
2019-04-06T13:22:44.800Z,34.37
2019-04-06T13:26:05.007Z,35.67
2019-04-06T13:29:14.726Z,33.60
2019-04-06T13:32:36.674Z,33.23
2019-04-06T13:35:40.890Z,30.67
2019-04-06T13:38:51.180Z,31.83
2019-04-06T13:42:12.215Z,35.40
2019-04-06T13:45:19.848Z,31.40
2019-04-06T13:48:41.051Z,36.77
2019-04-06T13:51:50.882Z,29.53
2019-04-06T13:55:12.025Z,36.90
2019-04-06T13:58:15.926Z,32.47
2019-04-06T14:01:19.684Z,35.37
2019-04-06T14:04:24.721Z,35.60
2019-04-06T14:07:43.287Z,32.33
2019-04-06T14:11:06.021Z,35.53
2019-04-06T14:14:18.827Z,31.97
2019-04-06T14:17:25.749Z,39.77
2019-04-06T14:20:38.931Z,37.07
2019-04-06T14:23:55.438Z,34.63
2019-04-06T14:27:07.989Z,33.37
2019-04-06T14:30:14.891Z,20.90
2019-04-06T14:33:35.337Z,27.37
2019-04-06T14:36:39.071Z,28.20
2019-04-06T14:39:54.937Z,42.17
2019-04-06T14:43:14.093Z,40.00
2019-04-06T14:46:29.835Z,45.90
2019-04-06T14:49:36.817Z,42.50
2019-04-06T14:52:57.696Z,45.13
2019-04-06T14:56:11.152Z,45.57
2019-04-06T14:59:21.352Z,47.07
2019-04-06T15:02:37.473Z,49.97
2019-04-06T15:05:52.319Z,49.87
2019-04-06T15:09:02.308Z,52.73
2019-04-06T15:12:13.568Z,47.03
2019-04-06T15:15:17.276Z,44.37
2019-04-06T15:18:21.146Z,42.67
2019-04-06T15:21:24.874Z,53.73
2019-04-06T15:24:44.093Z,49.83
2019-04-06T15:27:50.824Z,47.93
2019-04-06T15:31:11.557Z,46.50
2019-04-06T15:34:15.400Z,46.57
2019-04-06T15:37:37.641Z,48.47
2019-04-06T15:40:58.539Z,46.10
2019-04-06T15:44:11.517Z,58.07
2019-04-06T15:47:32.206Z,53.77
2019-04-06T15:50:37.228Z,48.27
2019-04-06T15:53:43.953Z,48.00
2019-04-06T15:56:57.113Z,51.20
2019-04-06T16:00:06.934Z,54.77
2019-04-06T16:03:13.997Z,46.37
2019-04-06T16:06:18.999Z,48.87
2019-04-06T16:09:37.330Z,47.20
2019-04-06T16:12:44.429Z,35.37
2019-04-06T16:15:58.353Z,30.63
2019-04-06T16:19:04.922Z,23.17
2019-04-06T16:22:08.702Z,23.73
2019-04-06T16:25:12.514Z,17.17
2019-04-06T16:28:32.804Z,18.87
2019-04-06T16:31:42.676Z,22.60
2019-04-06T16:35:02.270Z,24.97
2019-04-06T16:38:06.589Z,25.30
2019-04-06T16:41:13.495Z,25.50
2019-04-06T16:44:19.847Z,26.20
2019-04-06T16:47:30.073Z,20.83
2019-04-06T16:50:43.783Z,19.03
2019-04-06T16:53:56.676Z,16.70
2019-04-06T16:57:17.303Z,10.87
2019-04-06T17:00:23.860Z,10.17
2019-04-06T17:03:33.669Z,8.53
2019-04-06T17:06:55.712Z,9.00
2019-04-06T17:10:16.032Z,10.93
2019-04-06T17:13:20.015Z,11.90
2019-04-06T17:16:23.772Z,12.53
2019-04-06T17:19:40.396Z,14.83
2019-04-06T17:22:44.872Z,9.53
2019-04-06T17:25:52.140Z,26.10
2019-04-06T17:29:15.039Z,16.33
2019-04-06T17:32:35.605Z,25.67
2019-04-06T17:35:33.434Z,13.30
2019-04-06T17:38:40.070Z,9.33
2019-04-06T17:41:53.706Z,7.83
2019-04-06T17:44:57.641Z,11.83
2019-04-06T17:48:13.542Z,10.03
2019-04-06T17:51:17.742Z,8.73
2019-04-06T17:54:21.711Z,7.43
2019-04-06T17:57:31.527Z,6.33
2019-04-06T18:00:39.487Z,5.20
2019-04-06T18:03:48.965Z,6.83
2019-04-06T18:07:01.862Z,6.20
2019-04-06T18:10:09.876Z,5.90
2019-04-06T18:13:32.677Z,9.03
2019-04-06T18:16:35.738Z,9.23
2019-04-06T18:19:37.681Z,7.47
2019-04-06T18:22:40.175Z,8.80
2019-04-06T18:25:42.114Z,9.30
2019-04-06T18:28:44.197Z,11.57
2019-04-06T18:31:48.372Z,12.33
2019-04-06T18:34:50.477Z,13.30
2019-04-06T18:38:00.414Z,13.40
2019-04-06T18:41:02.493Z,13.77
2019-04-06T18:44:04.444Z,12.20
2019-04-06T18:47:06.470Z,16.50
2019-04-06T18:50:11.725Z,13.20
2019-04-06T18:53:18.196Z,13.53
2019-04-06T18:56:21.772Z,14.10
2019-04-06T18:59:24.893Z,13.63
2019-04-06T19:02:26.974Z,13.77
2019-04-06T19:05:31.049Z,16.50
2019-04-06T19:08:35.282Z,13.43
2019-04-06T19:11:39.763Z,14.53
2019-04-06T19:14:41.757Z,13.30
2019-04-06T19:17:47.402Z,17.50
2019-04-06T19:20:51.647Z,16.10
2019-04-06T19:23:56.178Z,14.33
2019-04-06T19:26:58.214Z,13.10
2019-04-06T19:30:00.132Z,18.80
2019-04-06T19:33:02.104Z,20.47
2019-04-06T19:36:04.356Z,15.90
2019-04-06T19:39:11.863Z,16.57
2019-04-06T19:42:14.026Z,15.40
2019-04-06T19:45:16.070Z,15.90
2019-04-06T19:48:17.981Z,19.27
2019-04-06T19:51:19.998Z,17.80
2019-04-06T19:54:22.311Z,19.33
2019-04-06T19:57:26.223Z,18.83
2019-04-06T20:00:28.153Z,22.60
2019-04-06T20:03:35.966Z,19.47
2019-04-06T20:06:34.605Z,21.40
2019-04-06T20:09:36.627Z,20.33
2019-04-06T20:12:38.957Z,20.23
2019-04-06T20:15:41.105Z,22.67
2019-04-06T20:18:43.343Z,19.43
2019-04-06T20:21:45.435Z,19.27
2019-04-06T20:24:47.400Z,24.37
2019-04-06T20:27:51.217Z,26.60
2019-04-06T20:30:53.279Z,27.60
2019-04-06T20:33:55.309Z,37.50
2019-04-06T20:36:57.998Z,28.37
2019-04-06T20:40:00.480Z,32.93
2019-04-06T20:43:02.867Z,35.13
2019-04-06T20:46:05.310Z,37.30
2019-04-06T20:49:07.676Z,48.90
2019-04-06T20:52:09.751Z,42.97
2019-04-06T20:55:12.441Z,46.00
2019-04-06T20:58:14.971Z,46.87
2019-04-06T21:01:16.895Z,36.50
2019-04-06T21:04:18.868Z,33.67
2019-04-06T21:07:22.038Z,28.50
2019-04-06T21:10:24.617Z,24.53
2019-04-06T21:13:26.931Z,30.30
2019-04-06T21:16:28.951Z,34.00
2019-04-06T21:19:31.467Z,43.83
2019-04-06T21:22:34.153Z,49.63
2019-04-06T21:25:36.491Z,58.70
2019-04-06T21:28:39.005Z,50.70
2019-04-06T21:31:41.956Z,51.90
2019-04-06T21:34:44.819Z,58.17
2019-04-06T21:37:47.088Z,64.03
2019-04-06T21:40:49.063Z,64.33
2019-04-06T21:43:51.162Z,63.60
2019-04-06T21:46:53.643Z,53.77
2019-04-06T21:49:55.662Z,49.70
2019-04-06T21:52:57.685Z,47.70
2019-04-06T21:56:03.492Z,45.43
2019-04-06T21:59:03.515Z,42.90
2019-04-06T22:02:06.041Z,43.23
2019-04-06T22:05:08.530Z,44.03
2019-04-06T22:08:10.590Z,47.53
2019-04-06T22:11:12.597Z,53.50
2019-04-06T22:14:14.876Z,55.53
2019-04-06T22:17:17.473Z,55.40
2019-04-06T22:20:19.766Z,52.70
2019-04-06T22:23:22.516Z,56.60
2019-04-06T22:26:24.796Z,52.27
2019-04-06T22:29:27.498Z,47.73
2019-04-06T22:32:30.123Z,44.77
2019-04-06T22:35:32.145Z,42.30
2019-04-06T22:38:34.140Z,50.83
2019-04-06T22:41:37.009Z,48.60
2019-04-06T22:44:39.968Z,40.53
2019-04-06T22:47:42.462Z,44.67
2019-04-06T22:50:44.385Z,42.27
2019-04-06T22:53:46.478Z,49.03
2019-04-06T22:56:48.442Z,48.50
2019-04-06T22:59:50.732Z,46.27
2019-04-06T23:02:54.614Z,59.23
2019-04-06T23:06:07.534Z,52.37
2019-04-06T23:09:10.059Z,54.40
2019-04-06T23:12:12.146Z,59.07
2019-04-06T23:15:14.073Z,54.70
2019-04-06T23:18:16.298Z,43.73
2019-04-06T23:21:19.559Z,51.70
2019-04-06T23:24:21.664Z,45.40
2019-04-06T23:27:24.270Z,49.37
2019-04-06T23:30:26.615Z,48.37
2019-04-06T23:33:29.451Z,49.80
2019-04-06T23:36:31.346Z,60.07
2019-04-06T23:39:33.360Z,50.73
2019-04-06T23:42:35.421Z,51.13
2019-04-06T23:45:37.867Z,59.83
2019-04-06T23:48:40.172Z,50.47
2019-04-06T23:51:42.579Z,51.57
2019-04-06T23:54:44.854Z,52.67
2019-04-06T23:57:46.799Z,51.67
